createdAt,value
2023-08-09T00:01:37.770Z,1.00
2023-08-09T00:04:05.543Z,1.00
2023-08-09T00:06:32.468Z,1.00
2023-08-09T00:08:59.352Z,1.00
2023-08-09T00:11:27.267Z,1.00
2023-08-09T00:13:54.183Z,1.00
2023-08-09T00:16:21.128Z,1.00
2023-08-09T00:18:48.151Z,1.00
2023-08-09T00:21:15.062Z,1.00
2023-08-09T00:23:41.989Z,1.00
2023-08-09T00:26:09.028Z,1.00
2023-08-09T00:28:35.917Z,1.00
2023-08-09T00:31:03.715Z,1.00
2023-08-09T00:33:30.564Z,1.00
2023-08-09T00:35:57.797Z,1.00
2023-08-09T00:38:25.308Z,1.00
2023-08-09T00:40:52.184Z,1.00
2023-08-09T00:43:19.061Z,1.00
2023-08-09T00:45:48.518Z,1.00
2023-08-09T00:48:15.890Z,1.00
2023-08-09T00:50:42.765Z,1.00
2023-08-09T00:53:09.972Z,1.00
2023-08-09T00:55:37.010Z,1.00
2023-08-09T00:58:04.086Z,1.00
2023-08-09T01:00:31.027Z,1.00
2023-08-09T01:02:58.636Z,1.00
2023-08-09T01:05:33.762Z,1.00
2023-08-09T01:08:17.834Z,1.40
2023-08-09T01:11:08.285Z,2.90
2023-08-09T01:13:38.219Z,1.00
2023-08-09T01:16:07.668Z,1.00
2023-08-09T01:18:36.483Z,1.00
2023-08-09T01:21:04.587Z,1.00
2023-08-09T01:23:37.831Z,1.00
2023-08-09T01:26:05.652Z,1.10
2023-08-09T01:28:33.593Z,3.80
2023-08-09T01:31:00.555Z,11.60
2023-08-09T01:33:27.975Z,6.40
2023-08-09T01:35:59.691Z,7.90
2023-08-09T01:38:35.628Z,14.70
2023-08-09T01:41:04.658Z,12.40
2023-08-09T01:43:31.811Z,14.00
2023-08-09T01:46:00.449Z,13.40
2023-08-09T01:48:27.492Z,11.30
2023-08-09T01:50:54.548Z,22.60
2023-08-09T01:53:21.495Z,56.20
2023-08-09T01:55:48.422Z,65.70
2023-08-09T01:58:15.327Z,80.20
2023-08-09T02:00:42.305Z,81.00
2023-08-09T02:03:09.298Z,93.00
2023-08-09T02:05:36.189Z,91.80
2023-08-09T02:08:05.301Z,94.30
2023-08-09T02:10:32.502Z,99.90
2023-08-09T02:12:59.392Z,99.00
2023-08-09T02:15:26.332Z,99.90
2023-08-09T02:17:53.395Z,96.60
2023-08-09T02:20:21.130Z,96.90
2023-08-09T02:22:49.951Z,99.90
2023-08-09T02:25:17.196Z,99.90
2023-08-09T02:27:44.117Z,99.90
2023-08-09T02:30:11.219Z,99.90
2023-08-09T02:32:39.024Z,99.90
2023-08-09T02:35:07.145Z,99.90
2023-08-09T02:37:34.143Z,99.90
2023-08-09T02:40:02.068Z,99.90
2023-08-09T02:42:29.107Z,99.90
2023-08-09T02:44:57.072Z,99.90
2023-08-09T02:47:24.497Z,99.90
2023-08-09T02:49:51.798Z,99.90
2023-08-09T02:52:18.991Z,99.90
2023-08-09T02:54:45.909Z,99.90
2023-08-09T02:57:12.972Z,99.90
2023-08-09T02:59:40.212Z,99.90
2023-08-09T03:02:08.028Z,99.90
2023-08-09T03:04:35.132Z,99.90
2023-08-09T03:07:02.340Z,99.90
2023-08-09T03:09:29.313Z,99.90
2023-08-09T03:11:56.221Z,99.90
2023-08-09T03:14:23.132Z,99.90
2023-08-09T03:16:50.050Z,99.90
2023-08-09T03:19:16.920Z,99.90
2023-08-09T03:21:43.868Z,99.90
2023-08-09T03:24:10.789Z,99.90
2023-08-09T03:26:37.618Z,99.90
2023-08-09T03:29:04.547Z,99.90
2023-08-09T03:31:32.169Z,99.90
2023-08-09T03:34:01.962Z,99.90
2023-08-09T03:36:28.973Z,99.90
2023-08-09T03:38:55.850Z,99.90
2023-08-09T03:41:22.784Z,99.90
2023-08-09T03:43:49.742Z,99.90
2023-08-09T03:46:16.671Z,99.90
2023-08-09T03:48:43.566Z,99.90
2023-08-09T03:51:10.679Z,99.90
2023-08-09T03:53:37.574Z,99.90
2023-08-09T03:56:04.680Z,99.90
2023-08-09T03:58:31.544Z,99.90
2023-08-09T04:00:58.446Z,99.90
2023-08-09T04:03:25.452Z,99.90
2023-08-09T04:05:52.603Z,99.90
2023-08-09T04:08:22.466Z,99.90
2023-08-09T04:10:49.540Z,99.90
2023-08-09T04:13:16.433Z,99.90
2023-08-09T04:15:43.293Z,99.90
2023-08-09T04:18:10.345Z,99.90
2023-08-09T04:20:37.254Z,99.90
2023-08-09T04:23:04.679Z,99.90
2023-08-09T04:25:31.553Z,99.90
2023-08-09T04:27:58.467Z,99.90
2023-08-09T04:30:25.887Z,99.90
2023-08-09T04:32:56.256Z,99.90
2023-08-09T04:35:24.359Z,99.90
2023-08-09T04:37:51.268Z,99.90
2023-08-09T04:40:18.210Z,99.90
2023-08-09T04:42:47.020Z,99.90
2023-08-09T04:45:14.088Z,99.90
2023-08-09T04:47:41.453Z,99.90
2023-08-09T04:50:09.065Z,99.90
2023-08-09T04:52:36.789Z,99.90
2023-08-09T04:55:04.667Z,99.90
2023-08-09T04:57:37.071Z,99.90
2023-08-09T05:00:09.459Z,99.90
2023-08-09T05:02:37.591Z,99.90
2023-08-09T05:05:08.731Z,99.90
2023-08-09T05:07:36.613Z,99.90
2023-08-09T05:10:05.761Z,99.90
2023-08-09T05:12:32.785Z,99.90
2023-08-09T05:14:59.751Z,99.90
2023-08-09T05:17:26.778Z,99.90
2023-08-09T05:19:53.697Z,99.90
2023-08-09T05:22:21.132Z,99.90
2023-08-09T05:24:48.086Z,99.90
2023-08-09T05:27:15.153Z,99.90
2023-08-09T05:29:42.256Z,99.90
2023-08-09T05:32:09.225Z,99.90
2023-08-09T05:34:36.105Z,99.90
2023-08-09T05:37:03.364Z,99.90
2023-08-09T05:39:30.462Z,99.90
2023-08-09T05:41:57.321Z,99.90
2023-08-09T05:44:24.175Z,99.90
2023-08-09T05:46:51.132Z,99.90
2023-08-09T05:49:18.027Z,99.90
2023-08-09T05:51:44.982Z,99.90
2023-08-09T05:54:11.967Z,99.90
2023-08-09T05:56:39.215Z,99.90
2023-08-09T05:59:06.550Z,99.90
2023-08-09T06:01:33.782Z,99.90
2023-08-09T06:04:00.679Z,99.90
2023-08-09T06:06:27.550Z,99.90
2023-08-09T06:08:54.516Z,99.90
2023-08-09T06:11:21.492Z,99.90
2023-08-09T06:13:48.614Z,60.90
2023-08-09T06:16:15.482Z,6.70
2023-08-09T06:18:43.095Z,1.00
2023-08-09T06:21:10.094Z,1.00
2023-08-09T06:23:37.043Z,1.00
2023-08-09T06:26:04.256Z,1.00
2023-08-09T06:28:31.425Z,1.00
2023-08-09T06:30:58.499Z,1.00
2023-08-09T06:33:25.523Z,1.00
2023-08-09T06:35:52.476Z,1.00
2023-08-09T06:38:20.090Z,1.00
2023-08-09T06:40:47.114Z,1.00
2023-08-09T06:43:14.050Z,1.00
2023-08-09T06:45:41.085Z,1.00
2023-08-09T06:48:09.366Z,1.00
2023-08-09T06:50:37.304Z,1.00
2023-08-09T06:53:04.589Z,1.00
2023-08-09T06:55:31.605Z,1.00
2023-08-09T06:57:58.525Z,1.00
2023-08-09T07:00:25.558Z,1.00
2023-08-09T07:02:52.755Z,1.00
2023-08-09T07:05:23.180Z,1.00
2023-08-09T07:07:55.963Z,1.00
2023-08-09T07:10:25.893Z,1.00
2023-08-09T07:12:52.954Z,1.00
2023-08-09T07:15:20.274Z,1.00
2023-08-09T07:17:47.616Z,1.00
2023-08-09T07:20:15.525Z,1.00
2023-08-09T07:22:43.732Z,1.00
2023-08-09T07:25:11.270Z,1.00
2023-08-09T07:27:45.978Z,1.00
2023-08-09T07:30:16.335Z,1.00
2023-08-09T07:32:44.281Z,1.00
2023-08-09T07:35:12.284Z,1.00
2023-08-09T07:37:42.136Z,1.00
2023-08-09T07:40:10.440Z,1.00
2023-08-09T07:42:37.367Z,1.00
2023-08-09T07:45:04.771Z,1.00
2023-08-09T07:47:31.733Z,1.00
2023-08-09T07:49:58.698Z,1.00
2023-08-09T07:52:25.622Z,1.00
2023-08-09T07:54:52.495Z,1.00
2023-08-09T07:57:20.057Z,1.00
2023-08-09T07:59:46.972Z,1.00
2023-08-09T08:02:13.826Z,1.00
2023-08-09T08:04:40.740Z,1.00
2023-08-09T08:07:09.390Z,1.00
2023-08-09T08:09:36.643Z,1.00
2023-08-09T08:12:13.445Z,1.00
2023-08-09T08:14:48.770Z,1.00
2023-08-09T08:17:15.669Z,1.00
2023-08-09T08:19:42.627Z,1.00
2023-08-09T08:22:10.475Z,1.00
2023-08-09T08:24:37.388Z,1.00
2023-08-09T08:27:04.505Z,1.00
2023-08-09T08:29:31.345Z,1.00
2023-08-09T08:31:58.637Z,1.00
2023-08-09T08:34:33.115Z,1.00
2023-08-09T08:37:01.430Z,1.00
2023-08-09T08:39:31.473Z,1.00
2023-08-09T08:41:58.645Z,1.00
2023-08-09T08:44:26.615Z,99.90
2023-08-09T08:46:54.092Z,99.90
2023-08-09T08:49:24.816Z,99.90
2023-08-09T08:51:56.210Z,99.90
2023-08-09T08:54:24.332Z,99.90
2023-08-09T08:56:52.661Z,99.90
2023-08-09T08:59:19.967Z,99.90
2023-08-09T09:01:49.065Z,1.00
2023-08-09T09:04:16.245Z,1.00
2023-08-09T09:06:43.211Z,1.00
2023-08-09T09:09:16.913Z,99.90
2023-08-09T09:11:44.740Z,99.90
2023-08-09T09:14:15.670Z,99.90
2023-08-09T09:16:44.280Z,99.90
2023-08-09T09:19:11.538Z,99.90
2023-08-09T09:21:41.215Z,99.90
2023-08-09T09:24:09.956Z,99.90
2023-08-09T09:26:40.654Z,99.90
2023-08-09T09:29:09.360Z,99.90
2023-08-09T09:31:41.339Z,99.90
2023-08-09T09:34:10.491Z,99.90
2023-08-09T09:36:42.679Z,99.90
2023-08-09T09:39:11.396Z,99.90
2023-08-09T09:41:48.211Z,99.90
2023-08-09T09:44:21.348Z,99.90
2023-08-09T09:46:55.061Z,99.90
2023-08-09T09:49:22.175Z,99.90
2023-08-09T09:51:50.462Z,99.90
2023-08-09T09:54:17.835Z,99.90
2023-08-09T09:56:44.748Z,99.90
2023-08-09T09:59:11.810Z,99.90
2023-08-09T10:01:43.405Z,99.90
2023-08-09T10:04:12.641Z,99.90
2023-08-09T10:06:44.757Z,99.90
2023-08-09T10:09:14.261Z,99.90
2023-08-09T10:11:44.341Z,99.90
2023-08-09T10:14:13.572Z,99.90
2023-08-09T10:16:41.940Z,99.90
2023-08-09T10:19:13.679Z,1.00
2023-08-09T10:21:42.135Z,1.00
2023-08-09T10:24:09.174Z,1.00
2023-08-09T10:26:40.966Z,99.90
2023-08-09T10:29:09.391Z,1.00
2023-08-09T10:32:00.599Z,1.00
2023-08-09T10:34:36.486Z,1.00
2023-08-09T10:37:05.137Z,1.00
2023-08-09T10:39:34.268Z,1.00
2023-08-09T10:42:15.315Z,99.90
2023-08-09T10:44:44.841Z,99.90
2023-08-09T10:47:15.808Z,99.90
2023-08-09T10:49:48.527Z,99.90
2023-08-09T10:52:19.948Z,99.90
2023-08-09T10:54:50.635Z,99.90
2023-08-09T10:57:17.673Z,99.90
2023-08-09T10:59:56.184Z,99.90
2023-08-09T11:02:23.019Z,99.90
2023-08-09T11:04:51.236Z,99.90
2023-08-09T11:07:21.747Z,99.90
2023-08-09T11:09:48.648Z,99.90
2023-08-09T11:12:18.428Z,99.90
2023-08-09T11:14:46.811Z,99.90
2023-08-09T11:17:14.809Z,99.90
2023-08-09T11:19:41.758Z,99.90
2023-08-09T11:22:08.795Z,99.90
2023-08-09T11:24:35.752Z,99.90
2023-08-09T11:27:02.689Z,99.90
2023-08-09T11:29:29.808Z,99.90
2023-08-09T11:31:59.455Z,99.90
2023-08-09T11:34:27.119Z,99.90
2023-08-09T11:36:56.918Z,99.90
2023-08-09T11:39:26.207Z,99.90
2023-08-09T11:41:56.286Z,99.90
2023-08-09T11:44:37.602Z,99.90
2023-08-09T11:47:08.037Z,99.90
2023-08-09T11:49:35.792Z,99.90
2023-08-09T11:52:04.464Z,99.90
2023-08-09T11:54:32.125Z,99.90
2023-08-09T11:57:02.111Z,99.90
2023-08-09T11:59:29.420Z,99.90
2023-08-09T12:01:59.359Z,99.90
2023-08-09T12:04:27.990Z,99.90
2023-08-09T12:07:01.227Z,99.90
2023-08-09T12:09:37.527Z,99.90
2023-08-09T12:12:09.334Z,99.90
2023-08-09T12:14:41.717Z,99.90
2023-08-09T12:17:09.816Z,99.90
2023-08-09T12:19:37.531Z,99.90
2023-08-09T12:22:05.642Z,99.90
2023-08-09T12:24:32.797Z,99.90
2023-08-09T12:26:59.792Z,99.90
2023-08-09T12:29:26.696Z,99.90
2023-08-09T12:31:53.820Z,99.90
2023-08-09T12:34:21.041Z,99.90
2023-08-09T12:36:48.143Z,99.90
2023-08-09T12:39:18.203Z,99.90
2023-08-09T12:41:45.162Z,99.90
2023-08-09T12:44:12.967Z,99.90
2023-08-09T12:46:41.218Z,99.90
2023-08-09T12:49:08.156Z,99.90
2023-08-09T12:51:35.932Z,99.90
2023-08-09T12:54:02.834Z,99.90
2023-08-09T12:59:01.903Z,99.90
2023-08-09T13:01:29.194Z,99.90
2023-08-09T13:03:56.256Z,99.90
2023-08-09T13:06:23.164Z,99.90
2023-08-09T13:08:50.625Z,99.90
2023-08-09T13:11:17.954Z,99.90
2023-08-09T13:13:45.029Z,99.90
2023-08-09T13:16:12.285Z,99.90
2023-08-09T13:18:40.005Z,99.90
2023-08-09T13:21:14.291Z,99.90
2023-08-09T13:23:42.498Z,99.90
2023-08-09T13:26:09.618Z,99.90
2023-08-09T13:28:36.493Z,99.90
2023-08-09T13:31:03.398Z,99.90
2023-08-09T13:33:30.496Z,99.90
2023-08-09T13:35:57.413Z,99.90
2023-08-09T13:38:33.679Z,99.90
2023-08-09T13:41:01.162Z,99.90
2023-08-09T13:43:28.343Z,99.90
2023-08-09T13:45:55.273Z,99.90
2023-08-09T13:48:22.258Z,99.90
2023-08-09T13:50:50.479Z,99.90
2023-08-09T13:53:18.070Z,99.90
2023-08-09T13:55:46.264Z,99.90
2023-08-09T13:58:14.524Z,99.90
2023-08-09T14:00:41.923Z,99.90
2023-08-09T14:03:12.009Z,99.90
2023-08-09T14:05:39.228Z,99.90
2023-08-09T14:08:06.634Z,99.90
2023-08-09T14:10:33.785Z,99.90
2023-08-09T14:13:01.870Z,99.90
2023-08-09T14:15:29.262Z,99.90
2023-08-09T14:17:56.423Z,99.90
2023-08-09T14:20:23.901Z,99.90
2023-08-09T14:22:52.401Z,99.90
2023-08-09T14:25:21.137Z,99.90
2023-08-09T14:27:48.208Z,99.90
2023-08-09T14:30:15.726Z,99.90
2023-08-09T14:32:43.266Z,99.90
2023-08-09T14:35:12.086Z,99.90
2023-08-09T14:37:39.654Z,99.90
2023-08-09T14:40:08.328Z,99.90
2023-08-09T14:42:36.505Z,99.90
2023-08-09T14:45:04.851Z,99.90
2023-08-09T14:47:31.835Z,99.90
2023-08-09T14:49:59.373Z,99.90
2023-08-09T14:52:26.316Z,99.90
2023-08-09T14:54:53.434Z,99.90
2023-08-09T14:57:21.818Z,99.90
2023-08-09T14:59:49.034Z,99.90
2023-08-09T15:02:17.503Z,99.90
2023-08-09T15:04:45.377Z,99.90
2023-08-09T15:07:12.268Z,99.90
2023-08-09T15:09:39.132Z,99.90
2023-08-09T15:12:06.745Z,99.90
2023-08-09T15:14:34.764Z,99.90
2023-08-09T15:17:09.834Z,99.90
2023-08-09T15:19:44.785Z,99.90
2023-08-09T15:22:11.717Z,99.90
2023-08-09T15:24:38.617Z,99.90
2023-08-09T15:27:05.559Z,99.90
2023-08-09T15:29:34.846Z,99.90
2023-08-09T15:32:02.226Z,99.90
2023-08-09T15:34:30.365Z,99.90
2023-08-09T15:36:57.548Z,99.90
2023-08-09T15:39:24.471Z,99.90
2023-08-09T15:41:53.521Z,99.90
2023-08-09T15:44:22.574Z,99.90
2023-08-09T15:46:49.472Z,99.90
2023-08-09T15:49:16.452Z,99.90
2023-08-09T15:51:43.633Z,99.90
2023-08-09T15:54:10.614Z,99.90
2023-08-09T15:56:37.485Z,99.90
2023-08-09T15:59:04.444Z,99.90
2023-08-09T16:01:31.300Z,99.90
2023-08-09T16:03:58.227Z,99.90
2023-08-09T16:06:25.192Z,99.90
2023-08-09T16:08:53.646Z,99.90
2023-08-09T16:11:20.732Z,99.90
2023-08-09T16:13:47.636Z,99.90
2023-08-09T16:16:28.151Z,99.90
2023-08-09T16:19:00.855Z,99.90
2023-08-09T16:21:27.846Z,99.90
2023-08-09T16:23:56.986Z,99.90
2023-08-09T16:26:24.819Z,99.90
2023-08-09T16:28:51.709Z,99.90
2023-08-09T16:31:18.661Z,99.90
2023-08-09T16:33:45.580Z,99.90
2023-08-09T16:36:12.528Z,99.90
2023-08-09T16:38:39.372Z,99.90
2023-08-09T16:41:06.275Z,99.90
2023-08-09T16:43:38.351Z,99.90
2023-08-09T16:46:05.830Z,99.90
2023-08-09T16:48:33.307Z,99.90
2023-08-09T16:51:00.309Z,99.90
2023-08-09T16:53:27.162Z,99.90
2023-08-09T16:55:54.041Z,99.90
2023-08-09T16:58:21.427Z,99.90
2023-08-09T17:00:48.369Z,99.90
2023-08-09T17:03:15.625Z,99.90
2023-08-09T17:05:43.588Z,99.90
2023-08-09T17:08:11.495Z,99.90
2023-08-09T17:10:41.513Z,99.90
2023-08-09T17:13:08.409Z,99.90
2023-08-09T17:15:35.330Z,99.90
2023-08-09T17:18:02.253Z,99.90
2023-08-09T17:20:29.273Z,99.90
2023-08-09T17:22:56.238Z,99.90
2023-08-09T17:25:23.197Z,99.90
2023-08-09T17:27:50.135Z,99.90
2023-08-09T17:30:17.018Z,99.90
2023-08-09T17:32:44.027Z,99.90
2023-08-09T17:35:12.357Z,99.90
2023-08-09T17:37:39.224Z,99.90
2023-08-09T17:40:06.841Z,99.90
2023-08-09T17:42:33.734Z,99.90
2023-08-09T17:45:04.535Z,99.90
2023-08-09T17:47:33.456Z,99.90
2023-08-09T17:50:00.350Z,99.90
2023-08-09T17:52:28.901Z,99.90
2023-08-09T17:54:56.545Z,99.90
2023-08-09T17:57:23.615Z,99.90
2023-08-09T17:59:50.645Z,99.90
2023-08-09T18:02:17.632Z,99.90
2023-08-09T18:04:44.636Z,99.90
2023-08-09T18:07:11.564Z,99.90
2023-08-09T18:09:38.593Z,99.90
2023-08-09T18:12:05.927Z,99.90
2023-08-09T18:14:33.748Z,99.90
2023-08-09T18:17:03.380Z,99.90
2023-08-09T18:19:31.408Z,99.90
2023-08-09T18:21:58.279Z,99.90
2023-08-09T18:24:25.224Z,99.90
2023-08-09T18:26:52.077Z,99.90
2023-08-09T18:29:18.982Z,99.90
2023-08-09T18:31:45.909Z,99.90
2023-08-09T18:34:12.894Z,99.90
2023-08-09T18:36:40.272Z,99.90
2023-08-09T18:39:07.328Z,99.90
2023-08-09T18:41:34.218Z,99.90
2023-08-09T18:44:01.173Z,99.90
2023-08-09T18:46:28.113Z,1.00
2023-08-09T18:48:55.257Z,1.00
2023-08-09T18:51:22.141Z,1.00
2023-08-09T18:53:49.142Z,1.00
2023-08-09T18:56:16.570Z,1.00
2023-08-09T18:58:43.904Z,1.00
2023-08-09T19:01:12.133Z,1.00
2023-08-09T19:03:39.113Z,1.00
2023-08-09T19:06:05.999Z,1.00
2023-08-09T19:08:32.913Z,1.00
2023-08-09T19:10:59.771Z,1.00
2023-08-09T19:13:26.699Z,1.00
2023-08-09T19:15:54.800Z,1.00
2023-08-09T19:18:21.987Z,1.00
2023-08-09T19:20:49.929Z,1.00
2023-08-09T19:23:16.972Z,1.00
2023-08-09T19:25:43.882Z,1.00
2023-08-09T19:28:10.828Z,1.00
2023-08-09T19:30:38.501Z,1.00
2023-08-09T19:33:07.046Z,1.00
2023-08-09T19:35:34.076Z,1.00
2023-08-09T19:38:02.209Z,1.00
2023-08-09T19:40:31.496Z,1.00
2023-08-09T19:42:58.388Z,1.00
2023-08-09T19:45:25.394Z,1.00
2023-08-09T19:47:56.918Z,1.00
2023-08-09T19:50:23.934Z,1.00
2023-08-09T19:52:51.231Z,1.00
2023-08-09T19:55:20.358Z,1.00
2023-08-09T19:57:47.732Z,1.00
2023-08-09T20:00:18.218Z,1.00
2023-08-09T20:02:45.718Z,1.00
2023-08-09T20:05:17.776Z,1.00
2023-08-09T20:07:45.526Z,1.00
2023-08-09T20:10:12.627Z,1.00
2023-08-09T20:12:39.517Z,1.00
2023-08-09T20:15:06.921Z,1.00
2023-08-09T20:17:33.947Z,1.00
2023-08-09T20:20:00.966Z,1.00
2023-08-09T20:22:29.902Z,1.00
2023-08-09T20:24:56.885Z,1.00
2023-08-09T20:27:23.832Z,1.00
2023-08-09T20:29:50.847Z,1.00
2023-08-09T20:32:18.656Z,1.00
2023-08-09T20:34:45.649Z,1.00
2023-08-09T20:37:12.562Z,1.00
2023-08-09T20:39:39.420Z,1.00
2023-08-09T20:42:06.458Z,1.00
2023-08-09T20:44:36.717Z,1.00
2023-08-09T20:47:05.305Z,1.00
2023-08-09T20:49:32.560Z,1.00
2023-08-09T20:52:03.378Z,1.00
2023-08-09T20:54:30.272Z,1.00
2023-08-09T20:56:57.117Z,1.00
2023-08-09T20:59:23.949Z,1.00
2023-08-09T21:01:51.778Z,1.00
2023-08-09T21:04:20.262Z,1.00
2023-08-09T21:06:47.128Z,1.00
2023-08-09T21:09:14.034Z,1.00
2023-08-09T21:11:40.889Z,1.00
2023-08-09T21:14:07.750Z,1.00
2023-08-09T21:16:34.607Z,1.00
2023-08-09T21:19:01.484Z,1.00
2023-08-09T21:21:28.372Z,1.00
2023-08-09T21:24:29.083Z,1.00
2023-08-09T21:26:42.488Z,1.00
2023-08-09T21:29:09.356Z,1.00
2023-08-09T21:31:36.217Z,1.00
2023-08-09T21:34:03.817Z,1.00
2023-08-09T21:36:30.802Z,1.00
2023-08-09T21:38:57.766Z,1.00
2023-08-09T21:41:25.826Z,1.00
2023-08-09T21:43:52.697Z,1.00
2023-08-09T21:46:19.613Z,1.00
2023-08-09T21:48:46.526Z,1.00
2023-08-09T21:51:13.422Z,1.00
2023-08-09T21:53:40.242Z,1.00
2023-08-09T21:56:07.106Z,1.00
2023-08-09T21:58:34.023Z,1.00
2023-08-09T22:01:00.935Z,1.00
2023-08-09T22:03:27.882Z,1.00
2023-08-09T22:05:54.805Z,1.00
2023-08-09T22:08:21.808Z,1.00
2023-08-09T22:10:48.929Z,1.00
2023-08-09T22:13:16.161Z,1.00
2023-08-09T22:15:43.603Z,1.00
2023-08-09T22:18:17.044Z,1.00
2023-08-09T22:20:45.706Z,1.00
2023-08-09T22:23:13.410Z,1.00
2023-08-09T22:25:40.418Z,1.00
2023-08-09T22:28:13.188Z,1.00
2023-08-09T22:30:42.978Z,1.00
2023-08-09T22:33:10.589Z,1.00
2023-08-09T22:35:37.568Z,1.00
2023-08-09T22:38:04.798Z,1.00
2023-08-09T22:40:31.693Z,1.00
2023-08-09T22:42:58.595Z,1.00
2023-08-09T22:45:25.941Z,1.00
2023-08-09T22:47:53.024Z,1.00
2023-08-09T22:50:19.989Z,1.00
2023-08-09T22:52:46.871Z,1.00
2023-08-09T22:55:14.339Z,1.00
2023-08-09T22:57:41.350Z,1.00
2023-08-09T23:00:10.613Z,1.00
2023-08-09T23:02:37.905Z,1.00
2023-08-09T23:05:05.693Z,1.00
2023-08-09T23:07:33.348Z,1.00
2023-08-09T23:10:00.385Z,1.00
2023-08-09T23:12:29.918Z,1.00
2023-08-09T23:14:56.793Z,1.00
2023-08-09T23:17:25.826Z,1.00
2023-08-09T23:19:52.902Z,1.00
2023-08-09T23:22:20.386Z,1.00
2023-08-09T23:24:47.275Z,1.00
2023-08-09T23:27:14.128Z,1.00
2023-08-09T23:29:41.622Z,1.00
2023-08-09T23:32:08.544Z,1.00
2023-08-09T23:34:35.496Z,1.00
2023-08-09T23:37:02.460Z,1.00
2023-08-09T23:39:29.347Z,1.00
2023-08-09T23:41:56.202Z,1.00
2023-08-09T23:44:23.136Z,1.00
2023-08-09T23:46:50.041Z,1.00
2023-08-09T23:49:16.943Z,1.00
2023-08-09T23:51:43.794Z,1.00
2023-08-09T23:54:10.675Z,1.00
2023-08-09T23:56:37.515Z,1.00
2023-08-09T23:59:04.581Z,1.00
